createdAt,value
2022-08-05T00:01:28.103Z,6.38
2022-08-05T00:04:14.286Z,3.58
2022-08-05T00:07:00.005Z,4.07
2022-08-05T00:09:45.326Z,3.58
2022-08-05T00:12:31.272Z,5.30
2022-08-05T00:15:57.870Z,4.72
2022-08-05T00:18:22.521Z,4.25
2022-08-05T00:21:08.399Z,3.80
2022-08-05T00:24:10.279Z,4.25
2022-08-05T00:26:56.485Z,3.38
2022-08-05T00:29:41.971Z,5.82
2022-08-05T00:32:27.411Z,3.40
2022-08-05T00:35:12.784Z,3.97
2022-08-05T00:37:57.988Z,4.25
2022-08-05T00:40:53.422Z,6.03
2022-08-05T00:43:47.082Z,5.38
2022-08-05T00:46:42.778Z,5.05
2022-08-05T00:49:32.655Z,3.72
2022-08-05T00:52:31.007Z,3.55
2022-08-05T00:55:16.661Z,6.63
2022-08-05T00:58:04.813Z,7.68
2022-08-05T01:00:50.434Z,8.38
2022-08-05T01:03:36.170Z,9.02
2022-08-05T01:06:21.351Z,7.63
2022-08-05T01:09:19.976Z,8.45
2022-08-05T01:12:18.394Z,10.43
2022-08-05T01:15:35.445Z,5.43
2022-08-05T01:18:23.645Z,8.98
2022-08-05T01:21:22.729Z,8.52
2022-08-05T01:24:39.982Z,5.82
2022-08-05T01:28:03.383Z,7.03
2022-08-05T01:30:55.339Z,6.95
2022-08-05T01:33:53.478Z,7.43
2022-08-05T01:36:46.847Z,6.15
2022-08-05T01:39:45.652Z,9.05
2022-08-05T01:42:34.351Z,7.00
2022-08-05T01:45:20.714Z,6.95
2022-08-05T01:48:10.483Z,6.13
2022-08-05T01:50:57.587Z,9.75
2022-08-05T01:53:57.467Z,9.32
2022-08-05T01:58:12.555Z,10.05
2022-08-05T01:59:52.525Z,8.68
2022-08-05T02:02:54.563Z,8.07
2022-08-05T02:05:42.734Z,10.25
2022-08-05T02:08:31.265Z,8.88
2022-08-05T02:11:23.851Z,10.25
2022-08-05T02:14:25.513Z,8.32
2022-08-05T02:18:30.820Z,10.27
2022-08-05T02:20:51.466Z,9.65
2022-08-05T02:23:40.255Z,10.18
2022-08-05T02:26:39.076Z,9.15
2022-08-05T02:29:59.022Z,11.85
2022-08-05T02:32:50.507Z,6.97
2022-08-05T02:35:38.099Z,10.13
2022-08-05T02:38:37.702Z,9.98
2022-08-05T02:41:28.779Z,10.18
2022-08-05T02:44:31.752Z,11.23
2022-08-05T02:47:18.472Z,12.15
2022-08-05T02:50:06.358Z,12.68
2022-08-05T02:52:53.739Z,14.82
2022-08-05T02:55:48.331Z,14.82
2022-08-05T02:58:43.677Z,17.58
2022-08-05T03:01:31.282Z,16.30
2022-08-05T03:04:18.088Z,20.70
2022-08-05T03:07:09.610Z,16.60
2022-08-05T03:10:21.810Z,18.67
2022-08-05T03:13:17.466Z,16.88
2022-08-05T03:16:02.687Z,17.80
2022-08-05T03:18:49.298Z,16.48
2022-08-05T03:21:41.582Z,20.08
2022-08-05T03:24:35.016Z,16.45
2022-08-05T03:27:21.336Z,21.00
2022-08-05T03:30:09.213Z,20.77
2022-08-05T03:32:55.135Z,17.38
2022-08-05T03:35:41.206Z,16.85
2022-08-05T03:38:33.131Z,22.85
2022-08-05T03:41:18.991Z,14.07
2022-08-05T03:44:11.830Z,14.68
2022-08-05T03:46:57.362Z,12.02
2022-08-05T03:49:51.784Z,11.00
2022-08-05T03:54:59.130Z,10.85
2022-08-05T03:56:33.158Z,12.57
2022-08-05T03:59:26.048Z,12.60
2022-08-05T04:02:17.526Z,10.50
2022-08-05T04:05:23.730Z,12.40
2022-08-05T04:08:14.682Z,15.93
2022-08-05T04:11:16.811Z,12.68
2022-08-05T04:14:07.140Z,9.80
2022-08-05T04:16:53.870Z,8.05
2022-08-05T04:19:45.094Z,8.95
2022-08-05T04:22:35.952Z,9.68
2022-08-05T04:25:38.467Z,9.30
2022-08-05T04:28:31.016Z,8.38
2022-08-05T04:31:17.165Z,11.30
2022-08-05T04:34:18.674Z,7.65
2022-08-05T04:37:09.372Z,9.98
2022-08-05T04:39:56.226Z,8.48
2022-08-05T04:42:42.387Z,13.55
2022-08-05T04:45:48.310Z,10.23
2022-08-05T04:48:33.140Z,12.13
2022-08-05T04:51:18.340Z,16.27
2022-08-05T04:54:08.718Z,17.48
2022-08-05T04:56:59.745Z,16.45
2022-08-05T04:59:45.531Z,20.45
2022-08-05T05:02:36.167Z,22.77
2022-08-05T05:05:28.177Z,21.90
2022-08-05T05:08:30.220Z,21.58
2022-08-05T05:11:15.789Z,22.95
2022-08-05T05:14:03.319Z,21.83
2022-08-05T05:16:48.658Z,20.95
2022-08-05T05:19:37.301Z,22.27
2022-08-05T05:22:30.060Z,21.30
2022-08-05T05:25:16.343Z,20.70
2022-08-05T05:28:03.130Z,19.90
2022-08-05T05:30:49.673Z,21.95
2022-08-05T05:33:58.734Z,20.83
2022-08-05T05:36:41.174Z,24.38
2022-08-05T05:39:26.662Z,20.05
2022-08-05T05:42:20.872Z,47.45
2022-08-05T05:45:07.038Z,47.35
2022-08-05T05:48:06.011Z,32.72
2022-08-05T05:50:52.706Z,36.00
2022-08-05T05:53:54.377Z,51.40
2022-08-05T05:56:43.895Z,50.53
2022-08-05T05:59:29.340Z,51.60
2022-08-05T06:02:36.703Z,51.30
2022-08-05T06:05:23.471Z,47.60
2022-08-05T06:08:10.447Z,51.20
2022-08-05T06:10:56.347Z,42.30
2022-08-05T06:13:50.636Z,49.03
2022-08-05T06:16:39.368Z,52.40
2022-08-05T06:19:34.120Z,41.92
2022-08-05T06:22:26.179Z,50.60
2022-08-05T06:25:59.252Z,36.78
2022-08-05T06:28:21.427Z,33.55
2022-08-05T06:31:11.082Z,38.67
2022-08-05T06:34:07.570Z,49.63
2022-08-05T06:36:58.173Z,48.67
2022-08-05T06:39:44.349Z,38.88
2022-08-05T06:42:29.627Z,26.45
2022-08-05T06:45:20.887Z,28.73
2022-08-05T06:48:36.686Z,30.23
2022-08-05T06:51:23.819Z,26.83
2022-08-05T06:54:19.067Z,18.70
2022-08-05T06:57:57.583Z,19.73
2022-08-05T07:00:10.887Z,17.80
2022-08-05T07:02:57.851Z,17.67
2022-08-05T07:05:43.585Z,15.30
2022-08-05T07:08:32.137Z,13.90
2022-08-05T07:11:22.208Z,10.80
2022-08-05T07:14:30.515Z,13.98
2022-08-05T07:18:01.907Z,16.70
2022-08-05T07:20:33.763Z,18.88
2022-08-05T07:23:26.284Z,25.52
2022-08-05T07:26:15.037Z,22.27
2022-08-05T07:29:06.389Z,23.05
2022-08-05T07:31:54.418Z,28.73
2022-08-05T07:34:42.315Z,27.63
2022-08-05T07:37:29.110Z,27.88
2022-08-05T07:40:31.852Z,30.13
2022-08-05T07:43:20.725Z,29.58
2022-08-05T07:46:06.786Z,28.70
2022-08-05T07:49:10.365Z,28.15
2022-08-05T07:51:55.814Z,24.83
2022-08-05T07:54:49.050Z,27.83
2022-08-05T07:57:58.794Z,27.63
2022-08-05T08:00:41.095Z,24.25
2022-08-05T08:03:44.261Z,17.13
2022-08-05T08:06:31.154Z,14.30
2022-08-05T08:09:16.636Z,10.88
2022-08-05T08:12:14.361Z,13.10
2022-08-05T08:15:15.331Z,10.45
2022-08-05T08:18:01.849Z,10.23
2022-08-05T08:21:03.113Z,10.13
2022-08-05T08:24:03.356Z,9.07
2022-08-05T08:26:50.771Z,10.23
2022-08-05T08:30:06.501Z,9.90
2022-08-05T08:32:43.278Z,8.68
2022-08-05T08:35:28.651Z,9.13
2022-08-05T08:38:36.101Z,9.57
2022-08-05T08:41:25.961Z,8.48
2022-08-05T08:45:18.466Z,9.07
2022-08-05T08:48:05.763Z,9.13
2022-08-05T08:51:23.311Z,9.00
2022-08-05T08:53:40.267Z,9.50
2022-08-05T08:56:31.673Z,11.50
2022-08-05T08:59:20.946Z,8.27
2022-08-05T09:02:08.716Z,9.65
2022-08-05T09:05:16.371Z,7.65
2022-08-05T09:07:59.669Z,8.45
2022-08-05T09:10:46.875Z,8.50
2022-08-05T09:14:01.010Z,9.20
2022-08-05T09:16:40.131Z,8.82
2022-08-05T09:19:36.755Z,9.90
2022-08-05T09:23:18.562Z,7.72
2022-08-05T09:26:22.364Z,7.35
2022-08-05T09:29:08.795Z,7.28
2022-08-05T09:32:42.018Z,8.80
2022-08-05T09:35:26.705Z,7.50
2022-08-05T09:38:18.373Z,6.78
2022-08-05T09:41:12.956Z,7.50
2022-08-05T09:44:01.739Z,6.88
2022-08-05T09:46:53.670Z,6.50
2022-08-05T09:50:01.073Z,6.07
2022-08-05T09:52:57.543Z,7.07
2022-08-05T09:55:59.119Z,5.38
2022-08-05T09:59:00.837Z,5.72
2022-08-05T10:01:58.071Z,5.80
2022-08-05T10:04:45.161Z,5.10
2022-08-05T10:08:36.830Z,4.22
2022-08-05T10:11:02.000Z,8.20
2022-08-05T10:13:49.298Z,4.75
2022-08-05T10:16:37.688Z,5.30
2022-08-05T10:20:03.148Z,4.47
2022-08-05T10:22:35.087Z,4.60
2022-08-05T10:25:23.954Z,4.40
2022-08-05T10:28:17.074Z,5.63
2022-08-05T10:32:48.891Z,5.18
2022-08-05T10:34:10.777Z,5.18
2022-08-05T10:36:55.923Z,4.32
2022-08-05T10:39:59.035Z,4.78
2022-08-05T10:42:54.025Z,5.15
2022-08-05T10:45:42.075Z,5.78
2022-08-05T10:48:35.253Z,6.15
2022-08-05T10:51:29.197Z,3.95
2022-08-05T10:54:28.524Z,3.83
2022-08-05T10:57:30.870Z,5.68
2022-08-05T11:00:24.142Z,7.72
2022-08-05T11:03:24.317Z,4.97
2022-08-05T11:06:15.407Z,4.30
2022-08-05T11:09:32.026Z,5.00
2022-08-05T11:12:26.871Z,3.90
2022-08-05T11:15:23.421Z,7.85
2022-08-05T11:18:32.273Z,5.63
2022-08-05T11:21:48.647Z,4.82
2022-08-05T11:24:34.539Z,9.45
2022-08-05T11:27:51.191Z,4.50
2022-08-05T11:30:58.643Z,3.40
2022-08-05T11:33:48.126Z,2.78
2022-08-05T11:36:47.392Z,2.90
2022-08-05T11:39:55.529Z,4.88
2022-08-05T11:42:49.399Z,3.58
2022-08-05T11:46:16.164Z,3.30
2022-08-05T11:48:53.940Z,5.38
2022-08-05T11:51:49.432Z,5.07
2022-08-05T11:54:38.049Z,5.40
2022-08-05T11:57:30.561Z,7.78
2022-08-05T12:00:30.633Z,8.35
2022-08-05T12:03:31.499Z,9.95
2022-08-05T12:06:19.470Z,9.48
2022-08-05T12:09:06.655Z,8.90
2022-08-05T12:11:52.592Z,7.25
2022-08-05T12:14:43.301Z,9.10
2022-08-05T12:18:09.933Z,5.30
2022-08-05T12:20:41.436Z,6.38
2022-08-05T12:23:26.706Z,4.63
2022-08-05T12:26:13.052Z,4.88
2022-08-05T12:28:58.691Z,4.05
2022-08-05T12:31:53.852Z,4.28
2022-08-05T12:34:39.928Z,4.50
2022-08-05T12:37:29.833Z,6.60
2022-08-05T12:40:26.527Z,5.43
2022-08-05T12:43:20.932Z,11.27
2022-08-05T12:46:06.623Z,7.35
2022-08-05T12:49:14.421Z,6.75
2022-08-05T12:52:13.826Z,5.75
2022-08-05T12:55:22.084Z,7.75
2022-08-05T12:58:51.395Z,10.75
2022-08-05T13:02:03.205Z,4.57
2022-08-05T13:04:21.320Z,7.38
2022-08-05T13:07:16.023Z,14.43
2022-08-05T13:10:02.708Z,5.60
2022-08-05T13:12:51.032Z,3.03
2022-08-05T13:15:50.614Z,4.88
2022-08-05T13:18:39.500Z,5.45
2022-08-05T13:21:28.506Z,5.82
2022-08-05T13:24:27.723Z,3.70
2022-08-05T13:27:39.605Z,12.80
2022-08-05T13:30:34.318Z,3.45
2022-08-05T13:34:24.870Z,4.90
2022-08-05T13:36:27.737Z,4.38
2022-08-05T13:40:13.067Z,3.92
2022-08-05T13:42:21.424Z,4.18
2022-08-05T13:45:07.952Z,4.95
2022-08-05T13:48:09.444Z,3.92
2022-08-05T13:51:11.186Z,2.80
2022-08-05T13:53:59.578Z,5.18
2022-08-05T13:56:50.696Z,5.13
2022-08-05T13:59:37.998Z,2.40
2022-08-05T14:02:43.274Z,5.40
2022-08-05T14:05:48.393Z,2.90
2022-08-05T14:08:34.681Z,3.20
2022-08-05T14:11:22.013Z,2.85
2022-08-05T14:14:08.359Z,3.53
2022-08-05T14:16:55.348Z,2.42
2022-08-05T14:19:55.270Z,2.63
2022-08-05T14:22:50.174Z,2.55
2022-08-05T14:25:36.029Z,2.70
2022-08-05T14:28:30.874Z,4.25
2022-08-05T14:31:17.429Z,2.40
2022-08-05T14:34:23.639Z,3.38
2022-08-05T14:37:09.650Z,3.08
2022-08-05T14:39:59.033Z,3.67
2022-08-05T14:42:44.681Z,4.72
2022-08-05T14:45:31.083Z,3.40
2022-08-05T14:48:32.636Z,2.97
2022-08-05T14:51:19.330Z,3.95
2022-08-05T14:54:28.544Z,2.28
2022-08-05T14:57:13.692Z,3.13
2022-08-05T14:59:59.431Z,3.63
2022-08-05T15:02:45.278Z,3.17
2022-08-05T15:06:07.035Z,2.92
2022-08-05T15:09:01.098Z,3.85
2022-08-05T15:11:51.209Z,4.57
2022-08-05T15:14:48.120Z,3.97
2022-08-05T15:17:47.272Z,5.53
2022-08-05T15:20:38.865Z,5.18
2022-08-05T15:23:24.094Z,5.30
2022-08-05T15:26:09.498Z,4.28
2022-08-05T15:28:55.533Z,5.13
2022-08-05T15:31:40.851Z,3.95
2022-08-05T15:34:32.356Z,4.22
2022-08-05T15:38:34.386Z,9.55
2022-08-05T15:41:00.019Z,3.58
2022-08-05T15:43:29.675Z,4.28
2022-08-05T15:46:30.918Z,3.03
2022-08-05T15:49:26.305Z,3.45
2022-08-05T15:52:52.024Z,3.15
2022-08-05T15:56:02.985Z,3.53
2022-08-05T15:58:35.545Z,3.50
2022-08-05T16:01:29.298Z,2.72
2022-08-05T16:04:15.208Z,3.05
2022-08-05T16:07:03.664Z,3.47
2022-08-05T16:09:51.492Z,3.60
2022-08-05T16:12:39.899Z,3.08
2022-08-05T16:15:25.140Z,2.72
2022-08-05T16:18:19.169Z,4.68
2022-08-05T16:21:05.356Z,2.65
2022-08-05T16:23:53.864Z,2.55
2022-08-05T16:26:56.745Z,2.60
2022-08-05T16:29:45.510Z,5.07
2022-08-05T16:32:35.709Z,3.65
2022-08-05T16:35:27.839Z,3.38
2022-08-05T16:38:25.408Z,3.65
2022-08-05T16:42:12.541Z,4.95
2022-08-05T16:44:21.051Z,3.03
2022-08-05T16:47:28.992Z,4.05
2022-08-05T16:50:16.002Z,4.78
2022-08-05T16:53:09.211Z,3.13
2022-08-05T16:55:58.109Z,3.60
2022-08-05T16:58:44.246Z,4.50
2022-08-05T17:01:52.921Z,3.10
2022-08-05T17:04:35.455Z,2.65
2022-08-05T17:07:43.765Z,3.50
2022-08-05T17:10:31.185Z,3.45
2022-08-05T17:13:21.469Z,3.45
2022-08-05T17:16:33.144Z,5.18
2022-08-05T17:19:18.854Z,3.88
2022-08-05T17:22:05.329Z,2.90
2022-08-05T17:24:57.755Z,2.92
2022-08-05T17:27:43.877Z,4.70
2022-08-05T17:30:29.481Z,2.90
2022-08-05T17:33:14.995Z,1.58
2022-08-05T17:36:09.153Z,1.75
2022-08-05T17:38:55.353Z,2.60
2022-08-05T17:42:17.787Z,1.10
2022-08-05T17:44:50.166Z,1.23
2022-08-05T17:47:37.325Z,0.98
2022-08-05T17:50:28.340Z,2.33
2022-08-05T17:53:15.834Z,2.10
2022-08-05T17:56:04.235Z,1.95
2022-08-05T17:58:51.184Z,3.35
2022-08-05T18:01:49.553Z,1.90
2022-08-05T18:04:36.201Z,1.10
2022-08-05T18:07:41.435Z,4.85
2022-08-05T18:10:27.822Z,1.13
2022-08-05T18:13:17.844Z,3.70
2022-08-05T18:16:04.770Z,4.20
2022-08-05T18:18:50.882Z,2.17
2022-08-05T18:22:09.222Z,1.77
2022-08-05T18:24:41.535Z,1.77
2022-08-05T18:27:27.801Z,3.15
2022-08-05T18:30:13.297Z,3.38
2022-08-05T18:33:00.883Z,2.92
2022-08-05T18:36:00.068Z,1.17
2022-08-05T18:38:50.636Z,1.58
2022-08-05T18:41:58.285Z,1.77
2022-08-05T18:44:49.384Z,1.23
2022-08-05T18:47:40.907Z,2.83
2022-08-05T18:50:46.845Z,2.17
2022-08-05T18:53:34.676Z,2.33
2022-08-05T18:56:28.817Z,1.77
2022-08-05T18:59:50.619Z,2.63
2022-08-05T19:02:28.226Z,2.60
2022-08-05T19:06:13.575Z,2.58
2022-08-05T19:08:30.686Z,2.20
2022-08-05T19:11:23.369Z,1.50
2022-08-05T19:14:59.489Z,1.67
2022-08-05T19:17:28.513Z,8.65
2022-08-05T19:20:32.030Z,5.90
2022-08-05T19:24:05.996Z,7.93
2022-08-05T19:26:24.034Z,2.60
2022-08-05T19:29:10.263Z,3.03
2022-08-05T19:31:57.401Z,1.58
2022-08-05T19:34:54.279Z,3.13
2022-08-05T19:38:04.441Z,11.77
2022-08-05T19:40:47.281Z,1.95
2022-08-05T19:44:06.226Z,8.73
2022-08-05T19:46:39.455Z,4.53
2022-08-05T19:49:24.941Z,4.28
2022-08-05T19:52:30.386Z,3.88
2022-08-05T19:56:15.473Z,17.50
2022-08-05T19:58:28.782Z,2.70
2022-08-05T20:01:14.968Z,5.03
2022-08-05T20:04:00.933Z,3.20
2022-08-05T20:06:48.687Z,6.05
2022-08-05T20:09:54.709Z,4.82
2022-08-05T20:12:39.798Z,6.32
2022-08-05T20:15:52.114Z,3.50
2022-08-05T20:18:39.628Z,8.82
2022-08-05T20:21:25.656Z,3.42
2022-08-05T20:24:11.538Z,1.52
2022-08-05T20:26:56.894Z,14.70
2022-08-05T20:29:42.408Z,2.42
2022-08-05T20:32:45.226Z,2.42
2022-08-05T20:35:31.601Z,2.17
2022-08-05T20:38:27.288Z,3.95
2022-08-05T20:41:23.729Z,2.33
2022-08-05T20:44:18.884Z,3.65
2022-08-05T20:47:14.815Z,4.05
2022-08-05T20:50:02.106Z,2.00
2022-08-05T20:52:48.208Z,4.53
2022-08-05T20:55:55.624Z,11.73
2022-08-05T20:58:43.749Z,3.08
2022-08-05T21:01:38.519Z,4.80
2022-08-05T21:04:26.910Z,4.15
2022-08-05T21:07:12.658Z,4.22
2022-08-05T21:09:58.129Z,5.32
2022-08-05T21:12:55.543Z,2.60
2022-08-05T21:15:51.133Z,1.85
2022-08-05T21:18:36.949Z,4.22
2022-08-05T21:21:24.380Z,3.60
2022-08-05T21:24:09.930Z,2.28
2022-08-05T21:26:58.978Z,3.45
2022-08-05T21:29:48.561Z,1.90
2022-08-05T21:32:36.462Z,5.20
2022-08-05T21:35:29.716Z,1.98
2022-08-05T21:38:15.756Z,4.47
2022-08-05T21:41:02.314Z,4.05
2022-08-05T21:43:50.712Z,2.05
2022-08-05T21:46:46.718Z,3.20
2022-08-05T21:49:56.528Z,2.83
2022-08-05T21:52:39.808Z,2.55
2022-08-05T21:56:01.006Z,2.60
2022-08-05T21:58:41.999Z,3.65
2022-08-05T22:01:27.847Z,2.53
2022-08-05T22:04:20.484Z,4.30
2022-08-05T22:07:06.066Z,2.97
2022-08-05T22:09:51.924Z,2.13
2022-08-05T22:12:45.010Z,2.20
2022-08-05T22:16:01.946Z,1.67
2022-08-05T22:18:41.702Z,2.53
2022-08-05T22:21:34.471Z,1.48
2022-08-05T22:24:51.629Z,2.13
2022-08-05T22:28:08.771Z,1.60
2022-08-05T22:30:56.723Z,3.40
2022-08-05T22:33:55.836Z,2.17
2022-08-05T22:36:43.668Z,2.35
2022-08-05T22:39:34.515Z,1.92
2022-08-05T22:42:25.267Z,2.90
2022-08-05T22:45:11.842Z,2.60
2022-08-05T22:47:57.775Z,1.60
2022-08-05T22:50:46.202Z,2.15
2022-08-05T22:53:41.567Z,1.73
2022-08-05T22:56:30.204Z,1.73
2022-08-05T22:59:45.425Z,4.53
2022-08-05T23:02:29.757Z,3.72
2022-08-05T23:05:16.185Z,2.78
2022-08-05T23:08:01.733Z,1.75
2022-08-05T23:10:49.886Z,1.70
2022-08-05T23:13:38.633Z,2.35
2022-08-05T23:16:44.583Z,1.95
2022-08-05T23:19:41.963Z,3.35
2022-08-05T23:22:36.554Z,2.42
2022-08-05T23:25:52.003Z,2.05
2022-08-05T23:28:29.359Z,5.05
2022-08-05T23:31:17.912Z,2.25
2022-08-05T23:34:06.743Z,1.75
2022-08-05T23:36:52.911Z,1.92
2022-08-05T23:39:53.740Z,1.83
2022-08-05T23:42:40.763Z,2.50
2022-08-05T23:45:33.197Z,2.15
2022-08-05T23:48:19.718Z,3.10
2022-08-05T23:51:05.077Z,3.35
2022-08-05T23:53:50.677Z,1.40
2022-08-05T23:56:46.827Z,2.75
